Time;durP1;ratioP1;P1;durP2;ratioP2;P2;SDS_P1;SDS_P2;PMS_P1;PMS_P2;Temp;Humidity;BMP_temperature;BMP_pressure;BME280_temperature;BME280_humidity;BME280_pressure;Samples;Min_cycle;Max_cycle;Signal;HPM_P1;HPM_P2
2022/10/29 00:01:11;;;;;;;33.42;3.83;;;;;;;12.25;100.00;99910.31;5014125;28;20025;-89
2022/10/29 00:03:39;;;;;;;42.35;4.50;;;;;;;12.24;100.00;99914.81;5009056;28;20490;-91
2022/10/29 00:06:10;;;;;;;34.60;4.80;;;;;;;12.27;100.00;99903.88;4991906;28;20505;-90
2022/10/29 00:08:40;;;;;;;30.42;3.92;;;;;;;12.27;100.00;99893.28;4985808;28;20383;-91
2022/10/29 00:11:20;;;;;;;27.60;3.47;;;;;;;12.30;100.00;99902.69;5006341;28;20030;-91
2022/10/29 00:13:53;;;;;;;33.30;3.60;;;;;;;12.32;100.00;99905.16;5005805;28;20034;-91
2022/10/29 00:16:23;;;;;;;33.30;4.40;;;;;;;12.33;100.00;99905.00;5010763;28;20034;-90
2022/10/29 00:18:51;;;;;;;37.55;4.50;;;;;;;12.33;100.00;99917.41;5005493;28;20124;-91
2022/10/29 00:21:21;;;;;;;40.03;4.28;;;;;;;12.36;100.00;99907.31;4993798;28;20474;-91
2022/10/29 00:23:51;;;;;;;38.95;4.57;;;;;;;12.36;100.00;99909.16;4982940;28;20033;-91
2022/10/29 00:26:20;;;;;;;27.77;3.97;;;;;;;12.41;100.00;99909.44;5002783;28;20040;-90
2022/10/29 00:28:52;;;;;;;25.55;4.32;;;;;;;12.43;100.00;99914.59;4982936;28;20566;-90
2022/10/29 00:31:23;;;;;;;46.67;5.35;;;;;;;12.43;100.00;99901.34;4984820;28;20130;-91
2022/10/29 00:33:55;;;;;;;30.92;4.10;;;;;;;12.43;100.00;99903.97;5002688;28;20428;-90
2022/10/29 00:36:27;;;;;;;29.90;4.75;;;;;;;12.46;100.00;99903.63;4986175;28;20037;-91
2022/10/29 00:38:56;;;;;;;34.58;5.63;;;;;;;12.46;100.00;99904.47;4986881;28;20140;-90
2022/10/29 00:41:27;;;;;;;29.42;4.13;;;;;;;12.48;100.00;99909.63;4985885;28;20128;-90
2022/10/29 00:44:14;;;;;;;32.53;4.53;;;;;;;12.43;100.00;99891.56;4983396;28;20401;-90
2022/10/29 00:46:51;;;;;;;34.17;3.60;;;;;;;12.45;100.00;99894.06;4983442;28;20503;-90
2022/10/29 00:49:21;;;;;;;34.10;4.47;;;;;;;12.46;100.00;99890.38;4968441;28;20165;-89
2022/10/29 00:51:52;;;;;;;30.30;3.83;;;;;;;12.46;100.00;99882.44;4990248;28;20085;-90
2022/10/29 00:54:21;;;;;;;35.50;4.75;;;;;;;12.48;100.00;99877.81;4966117;28;20040;-90
2022/10/29 00:56:58;;;;;;;40.63;5.43;;;;;;;12.49;100.00;99867.03;4979700;28;20034;-90
2022/10/29 00:59:27;;;;;;;31.67;4.03;;;;;;;12.49;100.00;99866.19;5000867;28;20077;-90
2022/10/29 01:01:55;;;;;;;36.92;3.85;;;;;;;12.48;100.00;99857.44;4995979;28;20117;-90
2022/10/29 01:04:27;;;;;;;39.40;4.50;;;;;;;12.50;100.00;99850.13;4995850;28;20085;-91
2022/10/29 01:06:56;;;;;;;35.58;4.65;;;;;;;12.50;100.00;99850.13;4979100;28;20033;-91
2022/10/29 01:09:25;;;;;;;36.95;4.57;;;;;;;12.52;100.00;99848.13;4981781;28;20034;-91
2022/10/29 01:12:22;;;;;;;41.72;4.40;;;;;;;12.53;100.00;99846.31;4996272;28;20062;-91
2022/10/29 01:15:19;;;;;;;32.40;4.07;;;;;;;12.53;100.00;99847.13;4988987;28;20125;-90
2022/10/29 01:17:54;;;;;;;32.30;4.13;;;;;;;12.53;100.00;99839.16;4989031;28;20042;-91
2022/10/29 01:20:52;;;;;;;39.03;4.80;;;;;;;12.56;100.00;99832.72;4981808;28;20040;-91
2022/10/29 01:23:55;;;;;;;38.38;4.50;;;;;;;12.58;100.00;99836.00;4982270;28;20045;-90
2022/10/29 01:27:02;;;;;;;36.88;5.28;;;;;;;12.58;100.00;99825.41;4987257;28;20043;-92
2022/10/29 01:30:11;;;;;;;37.05;4.43;;;;;;;12.56;100.00;99826.56;4977468;28;20038;-92
2022/10/29 01:33:22;;;;;;;44.60;4.95;;;;;;;12.53;100.00;99810.00;4923964;29;20036;-92
2022/10/29 01:36:13;;;;;;;38.65;5.15;;;;;;;12.56;100.00;99810.66;4977194;28;20030;-92
2022/10/29 01:39:01;;;;;;;34.63;4.13;;;;;;;12.56;100.00;99800.91;4990500;28;20441;-91
2022/10/29 01:41:31;;;;;;;43.75;4.30;;;;;;;12.56;100.00;99800.06;5000432;28;20080;-91
2022/10/29 01:44:13;;;;;;;33.20;4.05;;;;;;;12.57;100.00;99794.59;4992453;28;20042;-92
2022/10/29 01:46:50;;;;;;;28.08;3.97;;;;;;;12.59;100.00;99794.41;4973434;28;20042;-93
2022/10/29 01:49:27;;;;;;;34.53;4.22;;;;;;;12.58;100.00;99790.13;5009089;28;20060;-92
2022/10/29 01:52:00;;;;;;;38.80;4.38;;;;;;;12.58;100.00;99787.47;5001958;28;20128;-91
2022/10/29 01:54:28;;;;;;;30.35;3.72;;;;;;;12.55;100.00;99783.31;4998923;28;20033;-92
2022/10/29 01:56:59;;;;;;;35.40;4.72;;;;;;;12.56;100.00;99784.16;4988116;28;20033;-91
2022/10/29 01:59:32;;;;;;;37.17;4.93;;;;;;;12.56;100.00;99784.16;4982172;28;20038;-91
2022/10/29 02:02:07;;;;;;;27.13;3.60;;;;;;;12.53;100.00;99774.75;4986706;28;20121;-91
2022/10/29 02:04:38;;;;;;;25.92;3.50;;;;;;;12.52;100.00;99768.59;4993270;28;20148;-91
2022/10/29 02:07:41;;;;;;;39.70;4.07;;;;;;;12.50;100.00;99762.63;5001607;28;20037;-91
2022/10/29 02:10:36;;;;;;;29.40;3.97;;;;;;;12.50;100.00;99756.53;4975060;28;20037;-92
2022/10/29 02:13:08;;;;;;;32.42;4.45;;;;;;;12.51;100.00;99764.31;4977062;28;20128;-91
2022/10/29 02:15:49;;;;;;;26.25;3.22;;;;;;;12.55;100.00;99754.16;4984847;28;20044;-91
2022/10/29 02:18:19;;;;;;;39.20;4.90;;;;;;;12.56;100.00;99757.66;4998994;28;20041;-91
2022/10/29 02:20:48;;;;;;;30.83;4.30;;;;;;;12.56;100.00;99752.34;4992385;28;20086;-92
2022/10/29 02:23:16;;;;;;;45.40;4.80;;;;;;;12.56;100.00;99749.69;4998514;28;20166;-91
2022/10/29 02:25:45;;;;;;;38.75;4.68;;;;;;;12.57;100.00;99743.38;5018233;28;20143;-91
2022/10/29 02:28:13;;;;;;;34.97;4.55;;;;;;;12.54;100.00;99731.31;4980854;28;20053;-91
2022/10/29 02:30:41;;;;;;;35.10;3.63;;;;;;;12.57;100.00;99717.72;4997072;28;20037;-91
2022/10/29 02:33:09;;;;;;;27.95;3.47;;;;;;;12.59;100.00;99728.97;4984402;28;20485;-91
2022/10/29 02:35:38;;;;;;;30.33;3.50;;;;;;;12.62;100.00;99719.84;4997083;28;20040;-90
2022/10/29 02:38:06;;;;;;;30.85;5.25;;;;;;;12.59;100.00;99728.13;4999610;28;20390;-90
2022/10/29 02:40:36;;;;;;;28.77;3.42;;;;;;;12.61;100.00;99718.19;4998954;28;20029;-90
2022/10/29 02:43:06;;;;;;;34.67;4.18;;;;;;;12.62;100.00;99711.88;5005076;28;20036;-91
2022/10/29 02:45:35;;;;;;;22.65;3.38;;;;;;;12.63;100.00;99706.41;4994782;28;20072;-90
2022/10/29 02:48:06;;;;;;;36.03;3.45;;;;;;;12.63;100.00;99708.22;5000970;28;20123;-90
2022/10/29 02:50:35;;;;;;;30.15;3.40;;;;;;;12.62;100.00;99704.75;4960074;28;20030;-91
2022/10/29 02:53:04;;;;;;;39.20;4.50;;;;;;;12.64;100.00;99696.63;4989387;28;20067;-91
2022/10/29 02:55:32;;;;;;;25.55;3.65;;;;;;;12.65;100.00;99696.47;4992081;28;20038;-91
2022/10/29 02:58:01;;;;;;;31.85;3.97;;;;;;;12.69;100.00;99690.81;4994017;28;20387;-91
2022/10/29 03:00:28;;;;;;;32.13;4.40;;;;;;;12.69;100.00;99682.84;4998964;28;20030;-90
2022/10/29 03:02:57;;;;;;;23.85;3.15;;;;;;;12.72;100.00;99682.50;4995226;28;20026;-91
2022/10/29 03:05:25;;;;;;;28.58;3.92;;;;;;;12.69;100.00;99674.88;4981564;28;20541;-90
2022/10/29 03:07:54;;;;;;;23.35;3.42;;;;;;;12.67;100.00;99672.41;4977463;28;20446;-90
2022/10/29 03:10:21;;;;;;;31.92;3.30;;;;;;;12.64;100.00;99676.25;4978768;28;20037;-90
2022/10/29 03:12:50;;;;;;;28.30;3.00;;;;;;;12.62;100.00;99657.03;4966748;28;20053;-90
2022/10/29 03:15:18;;;;;;;26.40;3.20;;;;;;;12.61;100.00;99643.97;4997384;28;20038;-90
2022/10/29 03:17:47;;;;;;;26.35;3.42;;;;;;;12.61;100.00;99630.72;4995647;28;20052;-91
2022/10/29 03:20:14;;;;;;;23.05;3.28;;;;;;;12.60;100.00;99640.47;4982810;28;20029;-90
2022/10/29 03:22:43;;;;;;;25.75;3.22;;;;;;;12.61;100.00;99638.66;4994764;28;20129;-90
2022/10/29 03:25:12;;;;;;;26.20;3.28;;;;;;;12.56;100.00;99639.19;4970497;28;20090;-90
2022/10/29 03:27:43;;;;;;;21.15;2.92;;;;;;;12.58;100.00;99628.41;5011502;28;20560;-90
2022/10/29 03:30:14;;;;;;;26.90;3.05;;;;;;;12.57;100.00;99618.78;4970456;28;20038;-90
2022/10/29 03:32:46;;;;;;;30.30;3.50;;;;;;;12.59;100.00;99609.69;4964966;28;20044;-90
2022/10/29 03:35:17;;;;;;;23.15;3.58;;;;;;;12.58;100.00;99607.22;5003974;28;20045;-90
2022/10/29 03:37:52;;;;;;;21.35;2.60;;;;;;;12.56;100.00;99604.75;4997254;28;20072;-90
2022/10/29 03:40:22;;;;;;;34.03;5.40;;;;;;;12.58;100.00;99591.31;4984914;28;20057;-90
2022/10/29 03:42:51;;;;;;;25.83;3.00;;;;;;;12.59;100.00;99587.63;4996279;28;20034;-90
2022/10/29 03:45:18;;;;;;;23.05;3.47;;;;;;;12.58;100.00;99581.50;4978531;28;20617;-90
2022/10/29 03:47:48;;;;;;;28.13;3.42;;;;;;;12.58;100.00;99581.50;4982860;28;20054;-90
2022/10/29 03:50:19;;;;;;;26.15;2.85;;;;;;;12.59;100.00;99580.53;4987102;28;20064;-90
2022/10/29 03:52:47;;;;;;;29.85;3.50;;;;;;;12.59;100.00;99579.69;4980792;28;20894;-91
2022/10/29 03:55:15;;;;;;;15.95;2.58;;;;;;;12.55;100.00;99565.97;4962255;28;20033;-91
2022/10/29 03:57:44;;;;;;;21.02;2.58;;;;;;;12.56;100.00;99569.44;4980670;28;20107;-90
2022/10/29 04:00:12;;;;;;;24.63;2.65;;;;;;;12.55;100.00;99565.97;4943299;28;20041;-91
2022/10/29 04:02:41;;;;;;;24.40;3.13;;;;;;;12.56;100.00;99572.09;4975806;28;20038;-91
2022/10/29 04:05:09;;;;;;;29.08;3.40;;;;;;;12.58;100.00;99570.09;4963651;28;20026;-89
2022/10/29 04:07:38;;;;;;;21.05;2.50;;;;;;;12.61;100.00;99564.44;4954569;28;20084;-91
2022/10/29 04:10:06;;;;;;;21.38;2.42;;;;;;;12.60;100.00;99560.94;4979835;28;20038;-90
2022/10/29 04:12:34;;;;;;;26.25;4.47;;;;;;;12.60;100.00;99555.66;4952684;28;20060;-90
2022/10/29 04:15:01;;;;;;;26.00;3.38;;;;;;;12.59;100.00;99558.47;4956042;28;20052;-90
2022/10/29 04:17:30;;;;;;;22.17;3.40;;;;;;;12.61;100.00;99543.22;4974897;28;20631;-90
2022/10/29 04:19:58;;;;;;;19.48;3.15;;;;;;;12.56;100.00;99538.47;4968379;28;20117;-91
2022/10/29 04:22:26;;;;;;;24.13;2.70;;;;;;;12.57;100.00;99537.44;4961595;28;20545;-90
2022/10/29 04:24:54;;;;;;;25.88;4.03;;;;;;;12.57;100.00;99539.28;4980011;28;20030;-90
2022/10/29 04:27:23;;;;;;;17.67;2.45;;;;;;;12.58;100.00;99535.63;4989343;28;20037;-90
2022/10/29 04:29:52;;;;;;;18.50;2.25;;;;;;;12.55;100.00;99523.53;4979455;28;20552;-90
2022/10/29 04:32:20;;;;;;;14.68;2.17;;;;;;;12.55;100.00;99520.09;4977979;28;20061;-90
2022/10/29 04:34:49;;;;;;;19.25;2.78;;;;;;;12.53;100.00;99515.78;4962971;28;20042;-91
2022/10/29 04:37:16;;;;;;;18.20;2.95;;;;;;;12.53;100.00;99512.31;4974948;28;20184;-91
2022/10/29 04:39:45;;;;;;;17.88;2.55;;;;;;;12.57;100.00;99502.16;4960561;28;20070;-90
2022/10/29 04:42:13;;;;;;;21.33;2.35;;;;;;;12.55;100.00;99496.22;4993588;28;20057;-90
2022/10/29 04:44:43;;;;;;;18.48;2.75;;;;;;;12.55;100.00;99496.22;4984260;28;20030;-90
2022/10/29 04:47:12;;;;;;;17.80;2.10;;;;;;;12.52;100.00;99492.94;5009905;28;20113;-89
2022/10/29 04:49:40;;;;;;;19.80;2.83;;;;;;;12.48;100.00;99483.72;4993392;28;20161;-90
2022/10/29 04:52:10;;;;;;;21.58;2.60;;;;;;;12.46;100.00;99482.22;4994406;28;20041;-90
2022/10/29 04:54:40;;;;;;;21.15;2.30;;;;;;;12.40;100.00;99474.00;4975127;28;20034;-90
2022/10/29 04:57:10;;;;;;;25.40;2.95;;;;;;;12.42;100.00;99470.34;4977981;28;20512;-89
2022/10/29 04:59:40;;;;;;;19.73;3.05;;;;;;;12.40;100.00;99473.19;4977614;28;20030;-89
2022/10/29 05:02:10;;;;;;;19.13;2.60;;;;;;;12.38;100.00;99464.56;4975266;28;20453;-89
2022/10/29 05:04:40;;;;;;;28.75;3.05;;;;;;;12.38;100.00;99467.22;4985185;28;20360;-90
2022/10/29 05:07:09;;;;;;;25.85;2.70;;;;;;;12.38;100.00;99460.13;4977723;28;20121;-90
2022/10/29 05:09:36;;;;;;;23.48;3.03;;;;;;;12.37;100.00;99453.19;4960777;28;20045;-90
2022/10/29 05:12:06;;;;;;;28.98;2.97;;;;;;;12.39;100.00;99443.19;4963241;28;20044;-90
2022/10/29 05:14:34;;;;;;;21.92;3.30;;;;;;;12.34;100.00;99439.47;4979499;28;20037;-90
2022/10/29 05:17:01;;;;;;;20.33;2.78;;;;;;;12.34;100.00;99436.81;4986937;28;20105;-90
2022/10/29 05:19:29;;;;;;;17.58;2.88;;;;;;;12.33;100.00;99432.50;4996800;28;20036;-89
2022/10/29 05:21:57;;;;;;;24.02;3.00;;;;;;;12.33;100.00;99435.13;4966573;28;20486;-90
2022/10/29 05:24:25;;;;;;;20.50;2.85;;;;;;;12.28;100.00;99438.34;5002420;28;20387;-91
2022/10/29 05:26:53;;;;;;;24.98;2.42;;;;;;;12.27;100.00;99434.03;4978959;28;20035;-92
2022/10/29 05:29:21;;;;;;;30.55;3.70;;;;;;;12.25;100.00;99433.41;4979737;28;20034;-91
2022/10/29 05:31:52;;;;;;;20.52;2.78;;;;;;;12.18;100.00;99422.72;4974962;28;20038;-92
2022/10/29 05:34:20;;;;;;;18.60;3.17;;;;;;;12.14;100.00;99419.59;4996768;28;20034;-92
2022/10/29 05:36:50;;;;;;;18.02;2.50;;;;;;;12.14;100.00;99422.25;4998504;28;20125;-92
2022/10/29 05:39:20;;;;;;;8.40;1.50;;;;;;;12.14;100.00;99413.47;5010234;28;20042;-91
2022/10/29 05:41:48;;;;;;;12.95;1.45;;;;;;;12.10;100.00;99407.72;4962643;28;20057;-92
2022/10/29 05:44:16;;;;;;;13.23;2.58;;;;;;;12.02;100.00;99391.88;4997740;28;20425;-91
2022/10/29 05:46:48;;;;;;;14.70;1.58;;;;;;;12.09;100.00;99386.72;4980178;28;20037;-92
2022/10/29 05:49:16;;;;;;;11.48;2.08;;;;;;;12.02;100.00;99378.63;4981206;28;20042;-91
2022/10/29 05:51:43;;;;;;;12.73;1.27;;;;;;;12.01;100.00;99374.31;4981760;28;20029;-91
2022/10/29 05:54:11;;;;;;;6.82;1.25;;;;;;;12.00;100.00;99381.47;4980927;28;20030;-91
2022/10/29 05:56:40;;;;;;;11.80;1.85;;;;;;;11.97;100.00;99379.19;5012701;28;20033;-91
2022/10/29 05:59:07;;;;;;;9.27;1.38;;;;;;;11.95;100.00;99369.75;4980907;28;20474;-91
2022/10/29 06:01:35;;;;;;;9.40;1.40;;;;;;;11.98;100.00;99375.50;4996636;28;20062;-91
2022/10/29 06:04:03;;;;;;;12.55;1.60;;;;;;;11.99;100.00;99369.19;4974337;28;20037;-91
2022/10/29 06:06:32;;;;;;;12.25;1.58;;;;;;;12.00;100.00;99364.75;4964353;28;20064;-91
2022/10/29 06:09:00;;;;;;;14.98;1.95;;;;;;;12.02;100.00;99358.25;5004797;28;20487;-92
2022/10/29 06:11:30;;;;;;;12.40;1.80;;;;;;;12.02;100.00;99355.59;4968887;28;20070;-91
2022/10/29 06:14:00;;;;;;;13.50;1.55;;;;;;;12.02;100.00;99354.81;4978662;28;20042;-92
2022/10/29 06:16:29;;;;;;;14.98;1.73;;;;;;;11.98;100.00;99351.69;4978352;28;20042;-91
2022/10/29 06:18:56;;;;;;;6.68;1.15;;;;;;;11.90;100.00;99349.09;4988846;28;20495;-90
2022/10/29 06:21:25;;;;;;;14.07;1.70;;;;;;;11.90;100.00;99333.22;4981345;28;20050;-92
2022/10/29 06:23:54;;;;;;;16.90;2.25;;;;;;;11.91;100.00;99329.59;4989752;28;20041;-93
2022/10/29 06:26:24;;;;;;;16.88;2.15;;;;;;;11.89;100.00;99329.78;4981225;28;20040;-92
2022/10/29 06:28:53;;;;;;;11.27;1.70;;;;;;;11.86;100.00;99316.88;4994640;28;20038;-93
2022/10/29 06:31:20;;;;;;;12.30;1.50;;;;;;;11.81;100.00;99305.19;4995969;28;20041;-93
2022/10/29 06:33:48;;;;;;;4.75;1.02;;;;;;;11.74;100.00;99290.03;5005779;28;20443;-93
2022/10/29 06:36:16;;;;;;;11.50;1.55;;;;;;;11.68;100.00;99288.09;4998174;28;20030;-94
2022/10/29 06:38:43;;;;;;;9.18;1.27;;;;;;;11.63;100.00;99287.81;4981796;28;20045;-93
2022/10/29 06:41:11;;;;;;;10.57;2.30;;;;;;;11.68;100.00;99276.69;4980784;28;20486;-94
2022/10/29 06:43:40;;;;;;;9.18;1.50;;;;;;;11.65;100.00;99277.88;4994648;28;20034;-93
2022/10/29 06:46:08;;;;;;;12.88;1.45;;;;;;;11.60;100.00;99270.47;4988084;28;20546;-94
2022/10/29 06:48:37;;;;;;;11.82;1.27;;;;;;;11.57;100.00;99265.53;5020925;28;20052;-94
2022/10/29 06:51:06;;;;;;;13.25;1.80;;;;;;;11.59;100.00;99271.50;5018061;28;20037;-93
2022/10/29 06:53:33;;;;;;;6.60;1.20;;;;;;;11.53;100.00;99267.72;4953087;28;20033;-92
2022/10/29 06:56:02;;;;;;;6.78;1.00;;;;;;;11.59;100.00;99260.06;4984567;28;20533;-93
2022/10/29 06:58:30;;;;;;;4.50;0.80;;;;;;;11.57;100.00;99251.47;5018755;28;20033;-92
2022/10/29 07:00:59;;;;;;;4.93;1.30;;;;;;;11.58;100.00;99237.25;4984317;28;20452;-92
2022/10/29 07:03:27;;;;;;;7.32;1.10;;;;;;;11.53;100.00;99235.97;4982282;28;20431;-92
2022/10/29 07:05:58;;;;;;;5.75;0.93;;;;;;;11.60;100.00;99240.53;5016088;28;20033;-92
2022/10/29 07:08:27;;;;;;;7.50;0.73;;;;;;;11.57;100.00;99230.31;4984003;28;20061;-92
2022/10/29 07:10:55;;;;;;;3.33;0.70;;;;;;;11.62;100.00;99222.66;5027173;28;20470;-92
2022/10/29 07:13:23;;;;;;;6.47;0.80;;;;;;;11.61;100.00;99208.59;4975612;28;20370;-93
2022/10/29 07:15:53;;;;;;;8.18;0.88;;;;;;;11.62;100.00;99196.19;5002370;28;20030;-95
2022/10/29 07:18:21;;;;;;;4.70;1.10;;;;;;;11.60;100.00;99188.44;5003251;28;20124;-94
2022/10/29 07:20:49;;;;;;;2.75;0.75;;;;;;;11.58;100.00;99185.13;4997747;28;20624;-94
2022/10/29 07:23:18;;;;;;;7.57;0.95;;;;;;;11.56;100.00;99181.03;4990348;28;20046;-93
2022/10/29 07:25:46;;;;;;;7.45;0.80;;;;;;;11.50;100.00;99166.69;4982372;28;20077;-93
2022/10/29 07:28:19;;;;;;;2.58;0.60;;;;;;;11.52;100.00;99165.53;4998930;28;20052;-93
2022/10/29 07:30:47;;;;;;;5.65;0.38;;;;;;;11.44;100.00;99162.13;4955970;28;20033;-93
2022/10/29 07:33:16;;;;;;;3.20;0.55;;;;;;;11.44;100.00;99159.50;5013545;28;20029;-93
2022/10/29 07:35:45;;;;;;;3.25;0.40;;;;;;;11.34;100.00;99152.63;4982117;28;20033;-93
2022/10/29 07:38:14;;;;;;;7.82;0.70;;;;;;;11.35;100.00;99143.72;4987307;28;20038;-92
2022/10/29 07:40:49;;;;;;;4.45;0.50;;;;;;;11.34;100.00;99141.25;4979693;28;20482;-92
2022/10/29 07:43:20;;;;;;;5.75;0.75;;;;;;;11.33;100.00;99131.66;5006545;28;20132;-92
2022/10/29 07:45:49;;;;;;;3.78;1.05;;;;;;;11.25;100.00;99133.41;4997234;28;20166;-92
2022/10/29 07:48:22;;;;;;;6.22;0.63;;;;;;;11.32;100.00;99128.22;4979693;28;20057;-92
2022/10/29 07:50:51;;;;;;;5.07;0.82;;;;;;;11.26;100.00;99123.66;4996441;28;20060;-92
2022/10/29 07:53:18;;;;;;;4.07;0.65;;;;;;;11.30;100.00;99122.28;4979580;28;20241;-92
2022/10/29 07:55:54;;;;;;;7.35;1.02;;;;;;;11.39;100.00;99125.63;4979584;28;20034;-92
2022/10/29 07:58:23;;;;;;;6.97;0.93;;;;;;;11.35;100.00;99117.28;4984448;28;20062;-92
2022/10/29 08:00:51;;;;;;;3.92;0.30;;;;;;;11.33;100.00;99119.25;4986915;28;20034;-94
2022/10/29 08:03:19;;;;;;;1.85;0.40;;;;;;;11.28;100.00;99126.91;4976647;28;20552;-94
2022/10/29 08:05:48;;;;;;;4.97;0.60;;;;;;;11.28;100.00;99121.63;4976561;28;20068;-93
2022/10/29 08:08:16;;;;;;;1.67;0.30;;;;;;;11.21;100.00;99126.81;4952587;28;20056;-93
2022/10/29 08:10:46;;;;;;;0.85;0.30;;;;;;;11.17;100.00;99112.31;4976893;28;20037;-93
2022/10/29 08:13:16;;;;;;;3.42;0.73;;;;;;;11.25;100.00;99114.06;4960475;28;20034;-93
2022/10/29 08:15:45;;;;;;;6.50;0.70;;;;;;;11.30;100.00;99103.75;4959982;28;20041;-94
2022/10/29 08:18:17;;;;;;;1.55;0.68;;;;;;;11.31;100.00;99109.88;4978026;28;20025;-92
2022/10/29 08:20:46;;;;;;;2.05;0.30;;;;;;;11.24;100.00;99107.13;4974936;28;20061;-93
2022/10/29 08:23:14;;;;;;;2.53;0.30;;;;;;;11.20;100.00;99100.53;4953827;28;20126;-94
2022/10/29 08:25:44;;;;;;;2.10;0.52;;;;;;;11.29;100.00;99089.69;4961686;28;20033;-93
2022/10/29 08:28:16;;;;;;;2.20;0.45;;;;;;;11.32;100.00;99087.69;4960871;28;20038;-93
2022/10/29 08:30:49;;;;;;;1.00;0.30;;;;;;;11.33;100.00;99090.16;4977395;28;20034;-93
2022/10/29 08:33:19;;;;;;;0.93;0.20;;;;;;;11.30;100.00;99085.25;4978646;28;20501;-93
2022/10/29 08:35:47;;;;;;;1.50;0.30;;;;;;;11.40;100.00;99075.19;4990687;28;20053;-92
2022/10/29 08:38:15;;;;;;;0.20;0.10;;;;;;;11.38;100.00;99061.34;4976627;28;20042;-93
2022/10/29 08:41:15;;;;;;;1.60;0.20;;;;;;;11.46;100.00;99070.19;4977561;28;20132;-93
2022/10/29 08:44:02;;;;;;;0.85;0.28;;;;;;;11.50;100.00;99052.91;4977026;28;20132;-93
2022/10/29 08:46:49;;;;;;;;;;;;;;;11.47;100.00;99034.75;4977864;28;20033;-93
2022/10/29 08:49:25;;;;;;;3.33;0.40;;;;;;;11.54;100.00;99035.69;5007578;28;19921;-93
2022/10/29 08:52:03;;;;;;;1.95;0.47;;;;;;;11.52;100.00;99038.50;4992909;28;20041;-93
2022/10/29 08:54:36;;;;;;;1.55;0.20;;;;;;;11.61;100.00;99028.63;4994784;28;20034;-94
2022/10/29 08:57:14;;;;;;;1.83;0.32;;;;;;;11.66;100.00;99020.97;5006014;28;20065;-92
2022/10/29 09:00:06;;;;;;;3.20;0.30;;;;;;;11.68;100.00;99017.28;4980526;28;20064;-93
2022/10/29 09:02:34;;;;;;;1.20;0.30;;;;;;;11.68;100.00;99009.34;4992835;28;20589;-93
2022/10/29 09:05:03;;;;;;;3.28;0.50;;;;;;;11.70;100.00;99002.88;4995029;28;20038;-93
2022/10/29 09:07:44;;;;;;;1.52;0.25;;;;;;;11.81;100.00;98998.09;4995988;28;20060;-92
2022/10/29 09:10:26;;;;;;;1.50;0.25;;;;;;;11.88;100.00;98996.34;4999619;28;20038;-92
2022/10/29 09:13:17;;;;;;;0.45;0.20;;;;;;;11.89;100.00;98977.63;5015941;28;20665;-92
2022/10/29 09:16:21;;;;;;;1.17;0.30;;;;;;;11.94;100.00;98979.69;5010364;28;20033;-92
2022/10/29 09:19:11;;;;;;;0.98;0.20;;;;;;;11.94;100.00;98979.69;4996052;28;20129;-92
2022/10/29 09:22:04;;;;;;;4.07;0.22;;;;;;;12.04;100.00;98968.75;4980522;28;20482;-92
2022/10/29 09:24:49;;;;;;;2.55;1.10;;;;;;;12.10;100.00;98956.63;4990184;28;20042;-92
2022/10/29 09:27:28;;;;;;;2.17;0.10;;;;;;;12.10;100.00;98954.81;4995273;28;20132;-92
2022/10/29 09:30:10;;;;;;;1.27;0.50;;;;;;;12.22;100.00;98964.88;4997381;28;20061;-92
2022/10/29 09:32:50;;;;;;;0.52;0.10;;;;;;;12.26;100.00;98977.53;4993739;28;20041;-92
2022/10/29 09:35:19;;;;;;;0.30;0.00;;;;;;;12.33;100.00;98974.13;4981140;28;20060;-93
2022/10/29 09:38:07;;;;;;;0.68;0.10;;;;;;;12.31;100.00;98965.56;4992379;28;20034;-91
2022/10/29 09:40:39;;;;;;;0.30;0.10;;;;;;;12.24;100.00;98961.03;5006420;28;20034;-91
2022/10/29 09:43:33;;;;;;;0.15;0.10;;;;;;;12.27;100.00;98952.69;4992442;28;20072;-91
2022/10/29 09:46:27;;;;;;;1.45;0.10;;;;;;;12.34;100.00;98957.22;4992408;28;20038;-90
2022/10/29 09:49:15;;;;;;;0.35;0.03;;;;;;;12.33;100.00;98953.75;5015081;28;20061;-89
2022/10/29 09:52:14;;;;;;;0.10;0.10;;;;;;;12.37;100.00;98954.19;4994139;28;20065;-92
2022/10/29 09:54:42;;;;;;;0.20;0.10;;;;;;;12.46;100.00;98950.38;4983361;28;20038;-90
2022/10/29 09:57:38;;;;;;;0.80;0.10;;;;;;;12.49;100.00;98959.75;5001869;28;20038;-90
2022/10/29 10:00:16;;;;;;;1.87;0.20;;;;;;;12.40;100.00;98943.19;4976695;28;20042;-92
2022/10/29 10:02:53;;;;;;;0.65;0.10;;;;;;;12.45;100.00;98942.63;4966356;28;20530;-93
2022/10/29 10:05:26;;;;;;;0.22;0.10;;;;;;;12.39;100.00;98934.44;4992537;28;20038;-93
2022/10/29 10:08:12;;;;;;;2.38;0.40;;;;;;;12.48;100.00;98942.22;4984169;28;20095;-92
2022/10/29 10:10:56;;;;;;;0.98;0.20;;;;;;;12.49;100.00;98917.34;4964258;28;20076;-92
2022/10/29 10:13:53;;;;;;;1.10;0.10;;;;;;;12.53;100.00;98929.22;4995641;28;20050;-92
2022/10/29 10:16:27;;;;;;;0.50;0.20;;;;;;;12.62;100.00;98916.63;4993954;28;20065;-90
2022/10/29 10:18:54;;;;;;;0.32;0.10;;;;;;;12.69;100.00;98914.84;4979393;28;20109;-94
2022/10/29 10:21:26;;;;;;;1.20;0.20;;;;;;;12.74;100.00;98930.97;4967646;28;20033;-92
2022/10/29 10:23:56;;;;;;;1.52;0.10;;;;;;;12.75;100.00;98932.63;4981043;28;20053;-92
2022/10/29 10:26:43;;;;;;;0.05;0.00;;;;;;;12.76;100.00;98923.63;5004549;28;20033;-92
2022/10/29 10:29:16;;;;;;;0.75;0.10;;;;;;;12.79;100.00;98925.06;4977105;28;20038;-92
2022/10/29 10:31:46;;;;;;;1.75;0.08;;;;;;;12.77;100.00;98900.59;4975222;28;20029;-92
2022/10/29 10:34:34;;;;;;;0.10;0.10;;;;;;;12.84;100.00;98903.25;4977148;28;20084;-92
2022/10/29 10:37:18;;;;;;;1.55;0.20;;;;;;;12.89;100.00;98890.25;4994165;28;20057;-93
2022/10/29 10:39:52;;;;;;;0.10;0.10;;;;;;;12.94;100.00;98898.41;4974794;28;20030;-93
2022/10/29 10:42:28;;;;;;;0.22;0.10;;;;;;;12.99;100.00;98887.22;4985968;28;20085;-93
2022/10/29 10:45:04;;;;;;;1.10;0.20;;;;;;;12.98;100.00;98877.63;4973404;28;20083;-92
2022/10/29 10:47:36;;;;;;;2.70;0.30;;;;;;;13.10;100.00;98873.38;4977806;28;20042;-89
2022/10/29 10:50:27;;;;;;;3.00;0.30;;;;;;;13.19;100.00;98887.28;5005061;28;20080;-89
2022/10/29 10:52:58;;;;;;;2.53;0.55;;;;;;;13.27;100.00;98873.81;5007901;28;20036;-91
2022/10/29 10:55:26;;;;;;;6.03;1.00;;;;;;;13.37;100.00;98869.97;4991560;28;20529;-92
2022/10/29 10:58:43;;;;;;;7.30;0.70;;;;;;;13.45;100.00;98853.84;5017180;28;20430;-92
2022/10/29 11:01:18;;;;;;;3.88;0.93;;;;;;;13.57;100.00;98851.44;4954337;28;20479;-92
2022/10/29 11:03:52;;;;;;;7.05;1.40;;;;;;;13.66;100.00;98852.06;5004514;28;20037;-91
2022/10/29 11:06:26;;;;;;;10.57;1.10;;;;;;;13.77;100.00;98858.59;4992049;28;20044;-92
2022/10/29 11:09:19;;;;;;;19.23;1.85;;;;;;;13.87;100.00;98861.63;4994576;28;20034;-93
2022/10/29 11:12:00;;;;;;;17.77;2.20;;;;;;;13.99;100.00;98850.41;4988343;28;20101;-92
2022/10/29 11:14:35;;;;;;;20.63;2.88;;;;;;;14.13;100.00;98854.69;4993446;28;20052;-93
2022/10/29 11:17:13;;;;;;;23.83;3.13;;;;;;;14.23;100.00;98856.91;4990371;28;20030;-93
2022/10/29 11:19:51;;;;;;;22.02;3.20;;;;;;;14.33;100.00;98855.66;4974327;28;20038;-94
2022/10/29 11:22:51;;;;;;;23.02;2.72;;;;;;;14.44;100.00;98855.03;5005965;28;20041;-93
2022/10/29 11:25:28;;;;;;;13.57;2.13;;;;;;;14.53;100.00;98850.28;4969821;28;20034;-92
2022/10/29 11:28:14;;;;;;;17.85;2.13;;;;;;;14.57;100.00;98850.69;4992942;28;20026;-92
2022/10/29 11:30:51;;;;;;;14.75;2.45;;;;;;;14.60;100.00;98848.44;5006104;28;20052;-92
2022/10/29 11:33:34;;;;;;;19.98;2.20;;;;;;;14.63;100.00;98841.84;5003772;28;20045;-93
2022/10/29 11:36:19;;;;;;;18.27;2.70;;;;;;;14.66;100.00;98853.91;4987526;28;20474;-92
2022/10/29 11:38:52;;;;;;;17.40;2.30;;;;;;;14.71;100.00;98838.97;4989491;28;20037;-92
2022/10/29 11:41:33;;;;;;;15.85;2.38;;;;;;;14.75;100.00;98832.19;5010445;28;20482;-92
2022/10/29 11:44:01;;;;;;;25.42;2.97;;;;;;;14.76;100.00;98841.00;5023195;28;20038;-91
2022/10/29 11:46:50;;;;;;;22.80;2.78;;;;;;;14.77;100.00;98831.97;4976345;28;20084;-92
2022/10/29 11:49:23;;;;;;;23.05;3.03;;;;;;;14.76;100.00;98844.44;5017473;28;20054;-93